Time;durP1;ratioP1;P1;durP2;ratioP2;P2;SDS_P1;SDS_P2;PMS_P1;PMS_P2;Temp;Humidity;BMP_temperature;BMP_pressure;BME280_temperature;BME280_humidity;BME280_pressure;Samples;Min_cycle;Max_cycle;Signal;HPM_P1;HPM_P2
2022/03/16 00:01:52;;;;;;;32.58;15.20;;;;;;;10.15;65.01;97901.78;4921907;28;20277;-87
2022/03/16 00:04:18;;;;;;;31.50;15.40;;;;;;;10.17;64.89;97898.97;4920574;28;20212;-88
2022/03/16 00:06:43;;;;;;;27.73;13.82;;;;;;;10.18;64.74;97903.94;4931968;28;20219;-88
2022/03/16 00:09:08;;;;;;;28.00;13.93;;;;;;;10.11;64.89;97898.06;4908750;28;20299;-88
2022/03/16 00:11:35;;;;;;;29.48;14.77;;;;;;;10.02;64.94;97904.56;4935525;28;20256;-88
2022/03/16 00:14:00;;;;;;;28.13;14.68;;;;;;;10.11;64.89;97900.66;4940276;28;20286;-87
2022/03/16 00:16:26;;;;;;;29.88;14.55;;;;;;;10.03;65.05;97883.53;4912592;28;20288;-87
2022/03/16 00:18:51;;;;;;;30.35;14.75;;;;;;;10.07;64.53;97902.09;4943974;28;20278;-87
2022/03/16 00:21:17;;;;;;;30.30;14.65;;;;;;;10.05;64.64;97901.53;4931892;28;20766;-87
2022/03/16 00:23:42;;;;;;;31.95;14.63;;;;;;;9.99;65.01;97889.41;4924714;28;20179;-87
2022/03/16 00:26:07;;;;;;;26.25;13.20;;;;;;;9.94;64.84;97882.28;4934703;28;20300;-87
2022/03/16 00:28:33;;;;;;;30.75;15.00;;;;;;;9.94;64.72;97883.06;4938575;28;20215;-88
2022/03/16 00:30:58;;;;;;;29.08;13.70;;;;;;;9.91;64.54;97880.91;4946387;28;20235;-88
2022/03/16 00:33:24;;;;;;;30.77;14.23;;;;;;;10.12;64.46;97899.63;4931561;28;20176;-88
2022/03/16 00:35:49;;;;;;;29.20;15.65;;;;;;;10.13;64.37;97906.41;4916070;28;20267;-89
2022/03/16 00:38:16;;;;;;;28.13;15.20;;;;;;;9.86;64.74;97872.97;4916836;28;20257;-89
2022/03/16 00:40:42;;;;;;;28.98;14.38;;;;;;;10.05;64.75;97894.50;4930385;28;20253;-88
2022/03/16 00:43:08;;;;;;;30.83;16.10;;;;;;;10.11;64.65;97901.44;4929403;28;20704;-88
2022/03/16 00:45:34;;;;;;;26.52;13.73;;;;;;;10.09;64.50;97897.47;4938318;28;20198;-88
2022/03/16 00:48:00;;;;;;;29.13;13.95;;;;;;;10.28;64.58;97911.19;4949287;28;20709;-88
2022/03/16 00:50:26;;;;;;;25.75;13.35;;;;;;;10.21;64.35;97895.69;4929449;28;20202;-88
2022/03/16 00:52:53;;;;;;;23.00;12.88;;;;;;;10.28;64.29;97892.97;4910895;28;20216;-88
2022/03/16 00:55:18;;;;;;;23.40;12.35;;;;;;;10.32;63.75;97890.75;4911838;28;20174;-87
2022/03/16 00:57:44;;;;;;;27.88;14.95;;;;;;;10.15;64.57;97893.97;4932222;28;20562;-87
2022/03/16 01:00:10;;;;;;;24.83;11.73;;;;;;;10.03;64.30;97875.72;4943033;28;20263;-87
2022/03/16 01:02:36;;;;;;;25.27;13.07;;;;;;;10.20;64.44;97883.69;4913518;28;20107;-88
2022/03/16 01:05:02;;;;;;;24.77;12.02;;;;;;;10.18;64.07;97869.31;4928321;28;20208;-88
2022/03/16 01:07:28;;;;;;;23.73;13.07;;;;;;;10.18;63.51;97870.13;4915236;28;20220;-88
2022/03/16 01:09:53;;;;;;;23.98;12.70;;;;;;;10.06;64.11;97877.09;4916337;28;20270;-88
2022/03/16 01:12:20;;;;;;;24.00;13.23;;;;;;;10.10;64.30;97870.44;4923467;28;20189;-88
2022/03/16 01:14:46;;;;;;;25.15;13.55;;;;;;;10.06;63.83;97875.28;4912053;28;20217;-88
2022/03/16 01:17:11;;;;;;;23.40;12.82;;;;;;;10.16;64.26;97879.16;4928766;28;20723;-87
2022/03/16 01:19:37;;;;;;;24.55;12.32;;;;;;;10.23;63.83;97888.44;4931207;28;20287;-87
2022/03/16 01:22:06;;;;;;;25.88;14.15;;;;;;;10.18;64.62;97882.31;4910953;28;20186;-87
2022/03/16 01:24:32;;;;;;;27.20;13.23;;;;;;;10.16;64.56;97885.16;4940046;28;20642;-87
2022/03/16 01:26:58;;;;;;;27.15;14.02;;;;;;;10.11;64.72;97882.44;4929858;28;20208;-87
2022/03/16 01:29:26;;;;;;;30.45;13.38;;;;;;;10.13;64.55;97889.00;4916581;28;20300;-86
2022/03/16 01:31:55;;;;;;;27.92;13.95;;;;;;;10.03;64.35;97885.34;4908760;28;20295;-87
2022/03/16 01:34:21;;;;;;;26.45;13.77;;;;;;;10.05;64.73;97873.69;4931787;28;20274;-87
2022/03/16 01:36:47;;;;;;;30.10;13.85;;;;;;;10.04;64.57;97871.31;4933934;28;20307;-87
2022/03/16 01:39:13;;;;;;;26.45;13.63;;;;;;;10.22;64.60;97886.84;4907446;28;20170;-86
2022/03/16 01:41:38;;;;;;;29.48;14.02;;;;;;;10.16;64.75;97885.16;4923326;28;20170;-86
2022/03/16 01:44:04;;;;;;;30.23;14.93;;;;;;;10.03;65.04;97874.94;4948163;28;20712;-87
2022/03/16 01:46:30;;;;;;;28.52;13.88;;;;;;;10.10;64.82;97889.44;4933852;28;20105;-87
2022/03/16 01:48:55;;;;;;;30.42;14.25;;;;;;;10.01;64.79;97887.41;4931379;28;20277;-87
2022/03/16 01:51:21;;;;;;;24.83;13.63;;;;;;;10.08;64.77;97886.25;4938879;28;20193;-87
2022/03/16 01:53:48;;;;;;;28.52;14.38;;;;;;;10.04;64.83;97876.53;4934661;28;20693;-86
2022/03/16 01:56:17;;;;;;;31.25;14.38;;;;;;;9.83;65.10;97863.00;4935209;28;20243;-86
2022/03/16 01:58:43;;;;;;;27.92;13.43;;;;;;;10.03;64.97;97887.97;4917217;28;20270;-86
2022/03/16 02:12:12;;;;;;;27.70;12.52;;;;;;;9.92;65.13;97866.91;4967301;28;20246;-88
2022/03/16 02:14:38;;;;;;;26.98;12.77;;;;;;;10.00;64.77;97870.97;4946233;28;20249;-88
2022/03/16 02:17:05;;;;;;;27.40;13.88;;;;;;;9.93;65.13;97865.88;4920410;28;20247;-88
2022/03/16 02:19:32;;;;;;;28.33;13.90;;;;;;;9.90;65.00;97868.94;4937377;28;20106;-88
2022/03/16 02:22:03;;;;;;;28.92;13.18;;;;;;;9.87;65.05;97871.16;4918200;28;20173;-88
2022/03/16 02:25:24;;;;;;;28.23;13.02;;;;;;;9.83;65.44;97870.03;5000255;27;21125;-87
2022/03/16 02:27:49;;;;;;;25.02;13.80;;;;;;;9.91;65.28;97865.28;4965049;28;20165;-88
2022/03/16 02:30:15;;;;;;;25.08;12.35;;;;;;;9.86;64.98;97849.56;4945402;28;20194;-87
2022/03/16 02:32:40;;;;;;;23.27;12.30;;;;;;;10.01;65.25;97871.78;4967553;28;20671;-87
2022/03/16 02:35:06;;;;;;;25.35;12.35;;;;;;;9.91;65.26;97841.09;4951319;28;20198;-87
2022/03/16 02:37:36;;;;;;;27.27;13.05;;;;;;;9.88;64.86;97857.94;4951569;28;20194;-88
2022/03/16 02:40:01;;;;;;;25.83;12.13;;;;;;;10.01;65.02;97875.16;4982543;28;20703;-87
2022/03/16 02:42:27;;;;;;;21.77;11.43;;;;;;;10.02;64.64;97873.34;4950099;28;20099;-88
2022/03/16 02:44:52;;;;;;;25.50;12.75;;;;;;;10.06;64.70;97874.50;4968367;28;20207;-88
2022/03/16 02:47:18;;;;;;;20.92;10.95;;;;;;;10.08;64.71;97869.88;4967717;28;20240;-88
2022/03/16 02:49:43;;;;;;;22.27;11.65;;;;;;;10.07;64.69;97870.88;4941001;28;20216;-88
2022/03/16 02:52:09;;;;;;;21.38;10.93;;;;;;;10.00;64.77;97878.00;4946911;28;20372;-88
2022/03/16 02:54:35;;;;;;;22.08;11.68;;;;;;;9.86;64.97;97862.56;4948479;28;20192;-87
2022/03/16 02:57:01;;;;;;;20.73;10.85;;;;;;;9.99;64.41;97884.19;4964330;28;20634;-88
2022/03/16 02:59:27;;;;;;;23.02;12.05;;;;;;;10.02;64.60;97876.75;4964577;28;20178;-88
2022/03/16 03:01:52;;;;;;;22.02;12.32;;;;;;;9.90;64.42;97855.94;4929272;28;20205;-88
2022/03/16 03:04:17;;;;;;;22.13;11.77;;;;;;;10.04;64.72;97877.34;4958618;28;20162;-87
2022/03/16 03:06:43;;;;;;;20.70;10.93;;;;;;;9.84;64.54;97862.00;4964637;28;20206;-87
2022/03/16 03:09:08;;;;;;;21.65;12.15;;;;;;;9.94;64.89;97883.06;4945261;28;20212;-88
2022/03/16 03:11:34;;;;;;;22.42;11.60;;;;;;;9.89;65.20;97869.94;4979669;28;20358;-88
2022/03/16 03:14:00;;;;;;;22.85;11.82;;;;;;;9.85;64.84;97863.59;4931878;28;20206;-88
2022/03/16 03:16:27;;;;;;;26.50;13.00;;;;;;;9.96;65.40;97880.25;4964292;28;20245;-88
2022/03/16 03:18:52;;;;;;;26.33;11.80;;;;;;;9.72;65.14;97861.97;4942966;28;20169;-87
2022/03/16 03:21:17;;;;;;;25.40;12.32;;;;;;;9.74;65.03;97872.16;4951296;28;20288;-88
2022/03/16 03:23:43;;;;;;;24.98;12.02;;;;;;;9.87;65.37;97878.97;4947708;28;20297;-88
2022/03/16 03:26:09;;;;;;;27.40;13.20;;;;;;;9.94;65.24;97879.69;4947745;28;20661;-88
2022/03/16 03:28:34;;;;;;;26.77;12.32;;;;;;;9.82;64.93;97858.03;4947152;28;20215;-88
2022/03/16 03:31:00;;;;;;;25.15;12.98;;;;;;;9.90;64.93;97876.72;4950304;28;20164;-88
2022/03/16 03:33:25;;;;;;;23.73;12.18;;;;;;;9.82;65.24;97871.03;4948248;28;20207;-88
2022/03/16 03:35:50;;;;;;;28.67;15.10;;;;;;;9.82;65.66;97884.03;4933556;28;20211;-88
2022/03/16 03:38:19;;;;;;;26.75;13.77;;;;;;;9.61;65.70;97861.94;4937311;28;20329;-88
2022/03/16 03:40:45;;;;;;;25.65;12.85;;;;;;;9.75;65.34;97868.53;4931568;28;20715;-88
2022/03/16 03:43:10;;;;;;;25.88;13.75;;;;;;;9.81;65.25;97885.06;4953271;28;20286;-88
2022/03/16 03:45:36;;;;;;;31.15;14.00;;;;;;;9.53;65.96;97866.41;4936577;28;20291;-88
2022/03/16 03:48:01;;;;;;;28.58;14.18;;;;;;;9.52;66.16;97874.44;4936998;28;20267;-89
2022/03/16 03:50:27;;;;;;;25.52;13.05;;;;;;;9.75;65.72;97890.13;4946868;28;20182;-87
2022/03/16 03:52:52;;;;;;;29.17;13.32;;;;;;;9.59;65.58;97871.75;4947281;28;20286;-89
2022/03/16 03:55:18;;;;;;;28.77;14.02;;;;;;;9.67;65.73;97897.47;4933331;28;20671;-88
2022/03/16 03:57:44;;;;;;;28.50;13.77;;;;;;;9.62;65.44;97885.09;4948257;28;20029;-88
2022/03/16 04:00:09;;;;;;;28.38;14.60;;;;;;;9.51;65.98;97889.25;4933228;28;20300;-87
2022/03/16 04:02:35;;;;;;;30.45;14.10;;;;;;;9.25;66.78;97886.97;4922118;28;20174;-88
2022/03/16 04:05:04;;;;;;;26.52;13.30;;;;;;;9.50;66.24;97892.84;4921204;28;20236;-87
2022/03/16 04:07:30;;;;;;;28.90;14.05;;;;;;;9.65;66.05;97896.88;4950449;28;20345;-87
2022/03/16 04:09:55;;;;;;;30.20;13.65;;;;;;;9.70;65.85;97902.22;4942965;28;20642;-88
2022/03/16 04:12:21;;;;;;;30.83;14.40;;;;;;;9.49;66.15;97900.88;4917912;28;20205;-88
2022/03/16 04:14:46;;;;;;;28.60;14.05;;;;;;;9.33;66.66;97884.84;4921898;28;20354;-88
2022/03/16 04:17:11;;;;;;;36.25;16.50;;;;;;;9.49;66.50;97896.47;4918855;28;20170;-88
2022/03/16 04:19:37;;;;;;;35.00;15.68;;;;;;;9.51;66.56;97899.66;4926353;28;20667;-88
2022/03/16 04:22:02;;;;;;;35.80;16.23;;;;;;;9.38;66.86;97894.59;4932083;28;20203;-88
2022/03/16 04:24:28;;;;;;;33.05;15.57;;;;;;;9.21;67.52;97891.81;4938993;28;20786;-88
2022/03/16 04:26:56;;;;;;;36.80;16.13;;;;;;;9.18;66.87;97876.66;4950809;28;20351;-88
2022/03/16 04:29:21;;;;;;;40.50;16.55;;;;;;;9.34;66.63;97875.28;4928132;28;20294;-89
2022/03/16 04:31:46;;;;;;;37.60;17.33;;;;;;;9.49;66.22;97887.88;4932827;28;20208;-88
2022/03/16 04:34:12;;;;;;;36.00;18.23;;;;;;;9.22;66.85;97867.41;4931834;28;20259;-88
2022/03/16 04:36:37;;;;;;;42.05;18.50;;;;;;;9.07;67.10;97872.19;4940411;28;20285;-88
2022/03/16 04:39:03;;;;;;;44.65;18.35;;;;;;;9.37;66.75;97898.22;4951950;28;20281;-88
2022/03/16 04:41:28;;;;;;;37.70;17.75;;;;;;;9.36;66.31;97881.81;4952318;28;20086;-89
2022/03/16 04:43:54;;;;;;;40.03;18.33;;;;;;;9.32;66.29;97866.88;4928369;28;20300;-88
2022/03/16 04:46:19;;;;;;;42.13;18.33;;;;;;;9.40;66.51;97889.97;4917697;28;20216;-88
2022/03/16 04:48:45;;;;;;;42.70;18.67;;;;;;;9.28;66.51;97876.13;4930830;28;22058;-88
2022/03/16 04:51:10;;;;;;;42.10;19.92;;;;;;;9.23;67.15;97891.59;4934178;28;20243;-88
2022/03/16 04:53:35;;;;;;;46.60;19.27;;;;;;;9.39;66.69;97893.59;4924678;28;20361;-88
2022/03/16 04:56:01;;;;;;;42.25;19.23;;;;;;;9.58;66.14;97886.56;4931908;28;20367;-89
2022/03/16 04:58:27;;;;;;;45.53;21.55;;;;;;;9.48;66.06;97874.09;4931762;28;20200;-88
2022/03/16 05:00:52;;;;;;;46.05;20.75;;;;;;;9.39;66.09;97865.03;4916832;28;20155;-88
2022/03/16 05:03:18;;;;;;;46.45;20.02;;;;;;;9.47;66.44;97885.50;4921778;28;20275;-88
2022/03/16 05:05:43;;;;;;;51.58;20.77;;;;;;;9.55;66.13;97885.19;4953455;28;20668;-88
2022/03/16 05:08:09;;;;;;;48.55;21.15;;;;;;;9.48;66.07;97868.88;4948685;28;20194;-88
2022/03/16 05:10:35;;;;;;;48.50;20.70;;;;;;;9.57;65.83;97880.56;4930014;28;20295;-88
2022/03/16 05:13:01;;;;;;;49.08;21.83;;;;;;;9.61;66.31;97887.91;4933037;28;20530;-88
2022/03/16 05:15:26;;;;;;;49.50;21.55;;;;;;;9.52;65.75;97870.03;4935513;28;20321;-88
2022/03/16 05:17:52;;;;;;;45.78;19.02;;;;;;;9.45;66.02;97871.91;4937916;28;20282;-88
2022/03/16 05:20:18;;;;;;;51.45;21.30;;;;;;;9.31;66.37;97875.72;4952114;28;20636;-90
2022/03/16 05:22:44;;;;;;;49.13;21.05;;;;;;;9.21;66.81;97872.81;4914023;28;20251;-89
2022/03/16 05:25:15;;;;;;;50.97;22.55;;;;;;;9.09;67.26;97876.16;4952582;28;20210;-88
2022/03/16 05:27:41;;;;;;;54.00;23.13;;;;;;;9.51;66.26;97899.66;4936289;28;20207;-89
2022/03/16 05:30:09;;;;;;;55.08;23.33;;;;;;;9.49;66.04;97888.69;4950090;28;20287;-89
2022/03/16 05:32:35;;;;;;;56.75;25.10;;;;;;;9.28;66.73;97886.53;4933784;28;20288;-89
2022/03/16 05:35:01;;;;;;;61.70;25.52;;;;;;;9.48;66.08;97902.69;4952312;28;20187;-88
2022/03/16 05:37:27;;;;;;;57.42;24.17;;;;;;;9.36;66.48;97896.63;4934342;28;20386;-89
2022/03/16 05:39:53;;;;;;;54.95;24.27;;;;;;;9.36;66.78;97909.63;4933330;28;20252;-89
2022/03/16 05:42:19;;;;;;;57.72;25.08;;;;;;;9.33;67.25;97910.84;4926921;28;20282;-90
2022/03/16 05:44:45;;;;;;;60.33;24.23;;;;;;;9.12;67.47;97906.88;4941597;28;20110;-88
2022/03/16 05:47:11;;;;;;;64.18;25.77;;;;;;;9.57;66.74;97914.34;4925397;28;20169;-88
2022/03/16 05:49:37;;;;;;;60.22;24.75;;;;;;;9.56;66.16;97907.59;4925315;28;20138;-89
2022/03/16 05:52:03;;;;;;;59.28;24.70;;;;;;;9.49;66.05;97890.47;4929031;28;20716;-89
2022/03/16 05:54:29;;;;;;;65.45;26.25;;;;;;;9.44;66.95;97906.75;4932723;28;20148;-88
2022/03/16 05:56:54;;;;;;;58.83;25.45;;;;;;;9.40;66.79;97913.38;4949352;28;20264;-88
2022/03/16 05:59:20;;;;;;;65.82;26.60;;;;;;;9.48;66.40;97894.09;4949773;28;20338;-88
2022/03/16 06:01:46;;;;;;;61.28;25.48;;;;;;;9.53;66.84;97913.22;4932606;28;20224;-88
2022/03/16 06:04:11;;;;;;;74.15;34.72;;;;;;;9.53;66.46;97895.03;4917550;28;20157;-89
2022/03/16 06:06:37;;;;;;;69.78;31.15;;;;;;;9.49;66.43;97896.47;4932988;28;20313;-89
2022/03/16 06:09:03;;;;;;;69.30;32.97;;;;;;;9.61;66.60;97898.31;4912677;28;20651;-89
2022/03/16 06:11:30;;;;;;;67.18;26.05;;;;;;;9.48;66.57;97881.09;4918138;28;20216;-88
2022/03/16 06:13:57;;;;;;;61.95;27.50;;;;;;;9.50;67.04;97894.66;4932035;28;20341;-89
2022/03/16 06:16:22;;;;;;;63.13;25.92;;;;;;;9.52;66.84;97879.63;4929833;28;20408;-87
2022/03/16 06:18:52;;;;;;;61.33;25.25;;;;;;;9.57;66.29;97883.16;4949507;28;20188;-89
2022/03/16 06:21:19;;;;;;;60.72;25.13;;;;;;;9.65;65.80;97884.69;4936615;28;20228;-89
2022/03/16 06:23:45;;;;;;;62.25;26.80;;;;;;;9.87;65.75;97921.38;4929362;28;20302;-88
2022/03/16 06:26:11;;;;;;;61.25;25.30;;;;;;;9.95;65.69;97915.06;4929721;28;20242;-88
2022/03/16 06:28:36;;;;;;;53.50;24.40;;;;;;;9.87;65.69;97892.78;4928467;28;20181;-88
2022/03/16 06:31:02;;;;;;;55.20;23.90;;;;;;;9.72;65.55;97895.78;4904449;28;20166;-88
2022/03/16 06:33:27;;;;;;;53.58;24.58;;;;;;;9.85;65.85;97918.22;4944484;28;20201;-88
2022/03/16 06:35:53;;;;;;;49.20;24.92;;;;;;;9.80;65.51;97902.47;4926398;28;20223;-88
2022/03/16 06:38:18;;;;;;;51.47;23.92;;;;;;;9.91;65.44;97914.72;4912155;28;20295;-88
2022/03/16 06:40:44;;;;;;;52.65;24.08;;;;;;;10.06;65.45;97918.75;4931270;28;20173;-88
2022/03/16 06:43:09;;;;;;;50.83;23.00;;;;;;;10.04;65.50;97923.34;4917395;28;20169;-88
2022/03/16 06:45:34;;;;;;;49.88;22.92;;;;;;;10.01;65.36;97918.63;4931644;28;20216;-89
2022/03/16 06:48:02;;;;;;;46.45;22.42;;;;;;;10.17;64.97;97932.78;4947801;28;20288;-89
2022/03/16 06:50:28;;;;;;;45.63;22.33;;;;;;;10.18;65.06;97944.75;4930000;28;20181;-89
2022/03/16 06:52:56;;;;;;;47.72;24.27;;;;;;;10.06;65.12;97922.13;4925321;28;20287;-89
2022/03/16 06:55:21;;;;;;;44.58;21.40;;;;;;;10.05;64.85;97914.53;4927038;28;20207;-88
2022/03/16 06:57:47;;;;;;;46.53;23.88;;;;;;;9.95;65.61;97935.88;4931445;28;20181;-89
2022/03/16 07:00:15;;;;;;;44.10;22.00;;;;;;;9.96;65.10;97931.50;4930141;28;20203;-89
2022/03/16 07:02:53;;;;;;;49.92;23.95;;;;;;;9.75;65.42;97936.16;4929359;28;20756;-87
2022/03/16 07:05:20;;;;;;;42.15;21.35;;;;;;;9.99;65.03;97957.84;4931140;28;20176;-90
2022/03/16 07:07:46;;;;;;;44.78;23.33;;;;;;;10.04;65.04;97950.19;4947904;28;20195;-88
2022/03/16 07:10:12;;;;;;;44.40;21.30;;;;;;;10.16;65.04;97949.41;4931737;28;20668;-89
2022/03/16 07:12:37;;;;;;;46.70;22.40;;;;;;;9.94;65.60;97950.69;4929621;28;20181;-89
2022/03/16 07:15:03;;;;;;;45.80;22.42;;;;;;;9.94;65.35;97935.09;4941009;28;20207;-88
2022/03/16 07:17:29;;;;;;;48.75;22.48;;;;;;;9.70;65.57;97929.00;4934502;28;20649;-88
2022/03/16 07:19:54;;;;;;;53.20;25.52;;;;;;;9.94;65.20;97940.28;4926705;28;20649;-90
2022/03/16 07:22:20;;;;;;;48.47;21.85;;;;;;;10.02;65.72;97943.59;4931599;28;20732;-88
2022/03/16 07:24:45;;;;;;;44.70;22.48;;;;;;;10.31;64.82;97957.59;4931872;28;20224;-89
2022/03/16 07:27:12;;;;;;;45.88;21.73;;;;;;;10.28;64.86;97960.63;4926407;28;20500;-88
2022/03/16 07:29:38;;;;;;;46.20;23.70;;;;;;;10.17;65.21;97938.78;4927972;28;20087;-88
2022/03/16 07:32:04;;;;;;;45.17;22.83;;;;;;;10.36;64.67;97957.75;4944593;28;20661;-88
2022/03/16 07:34:30;;;;;;;43.83;22.17;;;;;;;10.33;65.04;97957.41;4933846;28;20262;-88
2022/03/16 07:36:55;;;;;;;46.92;22.45;;;;;;;10.28;65.04;97961.44;4934289;28;20303;-89
2022/03/16 07:39:21;;;;;;;47.50;23.33;;;;;;;10.52;64.79;97965.94;4931215;28;20698;-89
2022/03/16 07:41:47;;;;;;;42.78;21.55;;;;;;;10.44;64.74;97969.66;4945786;28;20228;-89
2022/03/16 07:44:12;;;;;;;36.97;19.70;;;;;;;10.45;64.46;97968.63;4932826;28;20188;-89
2022/03/16 07:46:42;;;;;;;38.17;21.40;;;;;;;10.39;64.51;97946.13;4917848;28;20242;-89
2022/03/16 07:49:08;;;;;;;49.38;21.77;;;;;;;10.55;64.05;97940.22;4928102;28;20098;-89
2022/03/16 07:51:33;;;;;;;44.47;21.88;;;;;;;10.49;64.43;97962.75;4918496;28;20212;-88
2022/03/16 07:53:58;;;;;;;41.35;21.65;;;;;;;10.52;64.64;97935.50;4948935;28;20172;-89
2022/03/16 07:56:24;;;;;;;42.97;21.15;;;;;;;10.63;64.51;97932.09;4933458;28;20578;-88
2022/03/16 07:58:54;;;;;;;41.88;21.52;;;;;;;10.74;64.43;97927.91;4944503;28;20657;-88
2022/03/16 08:01:19;;;;;;;37.92;18.98;;;;;;;10.93;63.85;97959.84;4945659;28;20238;-89
2022/03/16 08:03:45;;;;;;;37.08;19.23;;;;;;;10.91;63.78;97963.72;4931803;28;20862;-88
2022/03/16 08:06:11;;;;;;;36.60;18.27;;;;;;;10.77;63.89;97942.28;4933768;28;20165;-88
2022/03/16 08:08:39;;;;;;;40.05;20.17;;;;;;;11.02;64.34;97957.72;4915092;28;20356;-89
2022/03/16 08:11:06;;;;;;;40.53;21.30;;;;;;;11.10;63.69;97970.38;4927612;28;20200;-88
2022/03/16 08:13:32;;;;;;;39.03;19.90;;;;;;;11.19;63.83;97966.41;4918062;28;20195;-88
2022/03/16 08:15:57;;;;;;;38.17;20.90;;;;;;;11.10;64.08;97964.38;4912169;28;20101;-89
2022/03/16 08:18:23;;;;;;;41.97;21.95;;;;;;;11.21;64.01;97959.16;4929615;28;20284;-89
2022/03/16 08:20:48;;;;;;;40.38;19.83;;;;;;;11.25;63.73;97949.84;4932146;28;20693;-89
2022/03/16 08:23:14;;;;;;;35.47;17.92;;;;;;;11.38;63.73;97950.66;4935633;28;20199;-88
2022/03/16 08:25:40;;;;;;;35.35;18.92;;;;;;;11.22;64.26;97954.72;4950254;28;20187;-87
2022/03/16 08:28:06;;;;;;;35.95;18.90;;;;;;;11.33;63.47;97960.97;4927136;28;20203;-88
2022/03/16 08:30:34;;;;;;;36.70;18.85;;;;;;;11.41;63.83;97964.00;4931607;28;20199;-89
2022/03/16 08:33:00;;;;;;;34.65;18.52;;;;;;;11.58;63.27;97952.84;4924785;28;20135;-87
2022/03/16 08:35:26;;;;;;;37.60;19.27;;;;;;;11.59;63.16;97970.09;4947799;28;20169;-86
2022/03/16 08:37:52;;;;;;;35.40;18.30;;;;;;;11.47;64.02;97961.50;4926201;28;20453;-88
2022/03/16 08:40:17;;;;;;;33.45;17.27;;;;;;;11.27;63.47;97943.63;4926770;28;20193;-88
2022/03/16 08:42:45;;;;;;;33.38;18.10;;;;;;;11.34;63.04;97952.09;4923945;28;20208;-88
2022/03/16 08:45:11;;;;;;;36.08;17.35;;;;;;;11.57;63.63;97936.41;4921846;28;20212;-88
2022/03/16 08:47:37;;;;;;;31.63;18.25;;;;;;;11.47;63.85;97946.66;4906654;28;20321;-87
2022/03/16 08:50:03;;;;;;;32.90;17.35;;;;;;;11.30;64.27;97925.69;4929082;28;20606;-88
2022/03/16 08:52:29;;;;;;;33.95;18.00;;;;;;;11.66;63.80;97949.09;4913155;28;20184;-88
2022/03/16 08:54:55;;;;;;;33.65;17.23;;;;;;;11.59;64.14;97944.78;4923026;28;20738;-88
2022/03/16 08:57:23;;;;;;;31.02;16.98;;;;;;;11.91;63.50;97940.97;4902979;28;20196;-88
2022/03/16 08:59:48;;;;;;;33.35;17.27;;;;;;;11.89;63.15;97940.38;4928179;28;20243;-87
2022/03/16 09:02:14;;;;;;;31.98;17.20;;;;;;;11.91;63.25;97935.75;4922631;28;20278;-89
2022/03/16 09:04:40;;;;;;;28.05;15.27;;;;;;;12.04;62.16;97940.69;4908264;28;20321;-88
2022/03/16 09:07:05;;;;;;;32.63;16.33;;;;;;;12.05;62.82;97931.84;4909971;28;20292;-89
2022/03/16 09:09:30;;;;;;;29.48;16.67;;;;;;;12.01;62.28;97938.53;4926937;28;20278;-87
2022/03/16 09:11:56;;;;;;;27.38;15.00;;;;;;;12.03;62.29;97928.66;4915402;28;20669;-89
2022/03/16 09:14:22;;;;;;;29.25;15.32;;;;;;;12.35;62.97;97946.41;4916422;28;20280;-89
2022/03/16 09:16:47;;;;;;;27.52;15.00;;;;;;;12.10;62.40;97918.88;4911925;28;20199;-88
2022/03/16 09:19:15;;;;;;;29.75;16.90;;;;;;;12.44;62.76;97925.91;4944122;28;20161;-88
2022/03/16 09:21:43;;;;;;;25.95;15.02;;;;;;;12.54;61.70;97931.31;4929690;28;20259;-88
2022/03/16 09:24:10;;;;;;;29.88;15.93;;;;;;;12.43;61.81;97924.34;4944577;28;20207;-88
2022/03/16 09:26:35;;;;;;;29.60;16.40;;;;;;;12.48;61.72;97924.44;4932331;28;20254;-89
2022/03/16 09:29:01;;;;;;;28.77;15.43;;;;;;;12.42;62.37;97925.38;4947616;28;20504;-89
2022/03/16 09:31:26;;;;;;;32.50;16.73;;;;;;;12.61;62.35;97952.03;4926001;28;20286;-87
2022/03/16 09:33:52;;;;;;;27.70;15.52;;;;;;;12.65;61.77;97945.34;4940703;28;20635;-89
2022/03/16 09:36:18;;;;;;;34.55;15.98;;;;;;;12.74;63.21;97928.22;4919777;28;20259;-88
2022/03/16 09:38:43;;;;;;;33.03;16.92;;;;;;;13.01;62.20;97938.00;4905870;28;20232;-88
2022/03/16 09:41:08;;;;;;;31.83;16.67;;;;;;;12.85;61.28;97911.66;4926587;28;20197;-87
2022/03/16 09:43:38;;;;;;;32.90;15.93;;;;;;;12.68;62.72;97934.38;4924632;28;20242;-87
2022/03/16 09:46:11;;;;;;;32.83;17.08;;;;;;;12.41;62.81;97936.88;4935933;28;20181;-87
2022/03/16 09:48:38;;;;;;;32.20;17.27;;;;;;;12.76;61.32;97936.59;4922733;28;20157;-89
2022/03/16 09:51:04;;;;;;;32.63;16.55;;;;;;;12.86;62.54;97933.34;4912765;28;20696;-87
2022/03/16 09:53:30;;;;;;;33.88;17.00;;;;;;;13.02;62.11;97931.72;4929466;28;20290;-88
2022/03/16 09:55:56;;;;;;;31.63;16.65;;;;;;;12.94;61.63;97925.09;4942656;28;20217;-86
2022/03/16 09:58:22;;;;;;;30.80;16.35;;;;;;;12.47;62.67;97939.28;4936644;28;20204;-87
2022/03/16 10:00:48;;;;;;;38.13;17.65;;;;;;;12.73;63.01;97932.66;4925776;28;20107;-88
2022/03/16 10:03:15;;;;;;;35.45;16.08;;;;;;;12.60;62.76;97919.91;4908313;28;20252;-86
2022/03/16 10:05:40;;;;;;;34.85;17.33;;;;;;;13.03;61.43;97910.56;4940584;28;20723;-88
2022/03/16 10:08:08;;;;;;;30.15;15.32;;;;;;;13.28;61.22;97911.91;4904661;28;20245;-82
2022/03/16 10:13:21;;;;;;;28.85;16.45;;;;;;;13.23;61.14;97919.69;4941585;28;20578;-78
2022/03/16 10:15:47;;;;;;;27.58;15.98;;;;;;;13.07;61.09;97923.94;4940394;28;20310;-82
2022/03/16 10:18:15;;;;;;;29.48;15.63;;;;;;;13.11;61.54;97917.22;4936312;28;20216;-79
2022/03/16 10:20:41;;;;;;;29.90;15.70;;;;;;;13.25;61.39;97918.44;4935750;28;20218;-80
2022/03/16 10:23:14;;;;;;;29.92;15.40;;;;;;;13.58;60.26;97927.22;4920614;28;20634;-80
2022/03/16 10:25:41;;;;;;;32.13;15.73;;;;;;;13.62;60.67;97922.28;4939196;28;20271;-82
2022/03/16 10:28:12;;;;;;;29.02;14.55;;;;;;;13.59;59.68;97926.19;4955782;28;20200;-80
2022/03/16 10:31:07;;;;;;;29.73;15.80;;;;;;;13.65;60.95;97927.81;4920018;28;20237;-84
2022/03/16 10:33:34;;;;;;;32.45;16.30;;;;;;;13.95;59.77;97925.75;4934572;28;20107;-82
2022/03/16 10:36:07;;;;;;;31.42;16.83;;;;;;;13.89;59.96;97932.78;4940537;28;20646;-79
2022/03/16 10:38:43;;;;;;;27.70;14.85;;;;;;;13.76;61.39;97923.50;4940356;28;20578;-78
2022/03/16 10:47:00;;;;;;;26.98;14.68;;;;;;;14.63;58.41;97925.31;4945488;28;20191;-80
2022/03/16 10:49:30;;;;;;;27.40;15.57;;;;;;;14.60;58.70;97921.38;4927889;28;20323;-80
2022/03/16 10:52:11;;;;;;;29.40;16.15;;;;;;;14.09;59.19;97908.63;4958840;28;20207;-77
2022/03/16 10:54:37;;;;;;;25.23;14.10;;;;;;;14.62;59.49;97908.78;4947080;28;20207;-79
2022/03/16 10:57:10;;;;;;;24.58;14.50;;;;;;;14.25;59.22;97904.28;4928066;28;20282;-79
2022/03/16 10:59:36;;;;;;;31.05;17.13;;;;;;;14.58;59.05;97912.91;4937774;28;20286;-79
2022/03/16 11:02:13;;;;;;;30.75;15.82;;;;;;;14.02;59.17;97915.88;4962140;28;20187;-77
2022/03/16 11:04:40;;;;;;;29.90;15.68;;;;;;;14.22;59.05;97915.25;4941585;28;20218;-80
2022/03/16 11:07:06;;;;;;;24.60;14.55;;;;;;;14.17;58.58;97917.84;4938912;28;20200;-78
2022/03/16 11:09:34;;;;;;;24.38;13.80;;;;;;;13.76;59.67;97912.22;4941028;28;20522;-80
2022/03/16 11:14:47;;;;;;;29.17;14.98;;;;;;;13.73;60.18;97925.81;4943569;28;20245;-79
2022/03/16 11:17:13;;;;;;;23.67;13.63;;;;;;;13.51;59.93;97921.38;4939731;28;20182;-81
2022/03/16 11:19:39;;;;;;;26.65;14.70;;;;;;;13.50;60.40;97925.03;4924640;28;20638;-77
2022/03/16 11:22:24;;;;;;;27.35;15.30;;;;;;;13.79;59.88;97917.75;4928422;28;20700;-80
2022/03/16 11:25:10;;;;;;;28.13;14.40;;;;;;;13.88;60.73;97920.75;4946146;28;20275;-78
2022/03/16 11:27:49;;;;;;;27.13;15.63;;;;;;;14.03;59.89;97907.78;4935392;28;20281;-79
2022/03/16 11:30:29;;;;;;;26.05;14.35;;;;;;;14.45;59.31;97897.66;4942230;28;20210;-78
2022/03/16 11:33:06;;;;;;;26.52;14.20;;;;;;;14.63;59.15;97899.88;4931958;28;20298;-78
2022/03/16 11:35:33;;;;;;;25.08;14.20;;;;;;;14.34;58.99;97900.19;4928646;28;20220;-78
2022/03/16 11:38:10;;;;;;;23.00;14.00;;;;;;;14.39;59.25;97909.91;4942732;28;20654;-78
2022/03/16 11:40:56;;;;;;;24.23;14.60;;;;;;;14.22;59.71;97899.53;4940744;28;20211;-77